sensor_id;sensor_type;location;lat;lon;timestamp;P1;durP1;ratioP1;P2;durP2;ratioP2
51228;SDS011;37304;52.216;6.874;2023-07-20T00:04:57;3.35;;;1.80;;
51228;SDS011;37304;52.216;6.874;2023-07-20T00:09:57;3.58;;;2.47;;
51228;SDS011;37304;52.216;6.874;2023-07-20T00:14:57;6.95;;;2.78;;
51228;SDS011;37304;52.216;6.874;2023-07-20T00:19:57;4.05;;;2.40;;
51228;SDS011;37304;52.216;6.874;2023-07-20T00:24:57;4.43;;;2.83;;
51228;SDS011;37304;52.216;6.874;2023-07-20T00:29:58;7.07;;;3.25;;
51228;SDS011;37304;52.216;6.874;2023-07-20T00:34:58;4.95;;;3.13;;
51228;SDS011;37304;52.216;6.874;2023-07-20T00:39:58;4.25;;;2.83;;
51228;SDS011;37304;52.216;6.874;2023-07-20T00:44:58;5.63;;;3.80;;
51228;SDS011;37304;52.216;6.874;2023-07-20T00:49:59;8.07;;;3.70;;
51228;SDS011;37304;52.216;6.874;2023-07-20T00:54:59;10.02;;;3.60;;
51228;SDS011;37304;52.216;6.874;2023-07-20T00:59:59;6.18;;;3.40;;
51228;SDS011;37304;52.216;6.874;2023-07-20T01:04:59;6.07;;;4.03;;
51228;SDS011;37304;52.216;6.874;2023-07-20T01:15:09;6.75;;;3.72;;
51228;SDS011;37304;52.216;6.874;2023-07-20T01:20:12;6.93;;;3.72;;
51228;SDS011;37304;52.216;6.874;2023-07-20T01:35:41;5.05;;;3.22;;
51228;SDS011;37304;52.216;6.874;2023-07-20T01:40:43;4.47;;;2.75;;
51228;SDS011;37304;52.216;6.874;2023-07-20T01:45:44;4.80;;;2.92;;
51228;SDS011;37304;52.216;6.874;2023-07-20T01:50:44;4.70;;;2.90;;
51228;SDS011;37304;52.216;6.874;2023-07-20T01:55:45;4.75;;;2.65;;
51228;SDS011;37304;52.216;6.874;2023-07-20T02:00:45;7.47;;;2.53;;
51228;SDS011;37304;52.216;6.874;2023-07-20T02:05:46;3.70;;;2.30;;
51228;SDS011;37304;52.216;6.874;2023-07-20T02:10:47;4.57;;;2.50;;
51228;SDS011;37304;52.216;6.874;2023-07-20T02:15:47;3.42;;;2.38;;
51228;SDS011;37304;52.216;6.874;2023-07-20T02:20:49;4.25;;;2.72;;
51228;SDS011;37304;52.216;6.874;2023-07-20T02:25:49;6.00;;;2.88;;
51228;SDS011;37304;52.216;6.874;2023-07-20T02:30:49;8.88;;;3.05;;
51228;SDS011;37304;52.216;6.874;2023-07-20T02:35:50;5.88;;;3.20;;
51228;SDS011;37304;52.216;6.874;2023-07-20T02:40:50;3.97;;;2.58;;
51228;SDS011;37304;52.216;6.874;2023-07-20T02:45:50;3.87;;;2.60;;
51228;SDS011;37304;52.216;6.874;2023-07-20T02:50:50;5.72;;;3.40;;
51228;SDS011;37304;52.216;6.874;2023-07-20T02:55:51;4.65;;;3.20;;
51228;SDS011;37304;52.216;6.874;2023-07-20T03:00:51;5.23;;;3.73;;
51228;SDS011;37304;52.216;6.874;2023-07-20T03:05:51;4.57;;;3.08;;
51228;SDS011;37304;52.216;6.874;2023-07-20T03:10:54;5.07;;;3.08;;
51228;SDS011;37304;52.216;6.874;2023-07-20T03:15:54;4.93;;;3.33;;
51228;SDS011;37304;52.216;6.874;2023-07-20T03:20:54;4.80;;;3.30;;
51228;SDS011;37304;52.216;6.874;2023-07-20T03:25:55;3.90;;;2.60;;
51228;SDS011;37304;52.216;6.874;2023-07-20T03:30:55;4.45;;;2.88;;
51228;SDS011;37304;52.216;6.874;2023-07-20T03:35:56;5.78;;;3.35;;
51228;SDS011;37304;52.216;6.874;2023-07-20T03:40:57;5.07;;;2.85;;
51228;SDS011;37304;52.216;6.874;2023-07-20T03:45:57;5.88;;;3.13;;
51228;SDS011;37304;52.216;6.874;2023-07-20T03:50:57;4.32;;;2.88;;
51228;SDS011;37304;52.216;6.874;2023-07-20T03:55:58;4.13;;;2.57;;
51228;SDS011;37304;52.216;6.874;2023-07-20T04:00:58;4.45;;;2.33;;
51228;SDS011;37304;52.216;6.874;2023-07-20T04:05:58;4.88;;;3.00;;
51228;SDS011;37304;52.216;6.874;2023-07-20T04:11:00;5.88;;;2.97;;
51228;SDS011;37304;52.216;6.874;2023-07-20T04:16:01;4.10;;;3.05;;
51228;SDS011;37304;52.216;6.874;2023-07-20T04:21:02;5.55;;;2.97;;
51228;SDS011;37304;52.216;6.874;2023-07-20T04:26:02;4.50;;;2.83;;
51228;SDS011;37304;52.216;6.874;2023-07-20T04:31:12;4.65;;;2.95;;
51228;SDS011;37304;52.216;6.874;2023-07-20T04:36:13;4.65;;;3.00;;
51228;SDS011;37304;52.216;6.874;2023-07-20T04:41:16;5.63;;;3.35;;
51228;SDS011;37304;52.216;6.874;2023-07-20T04:46:16;4.43;;;3.50;;
51228;SDS011;37304;52.216;6.874;2023-07-20T04:51:18;4.40;;;3.47;;
51228;SDS011;37304;52.216;6.874;2023-07-20T04:56:20;6.22;;;3.35;;
51228;SDS011;37304;52.216;6.874;2023-07-20T05:01:23;4.43;;;3.22;;
51228;SDS011;37304;52.216;6.874;2023-07-20T05:06:23;4.85;;;3.20;;
51228;SDS011;37304;52.216;6.874;2023-07-20T05:11:23;5.40;;;3.70;;
51228;SDS011;37304;52.216;6.874;2023-07-20T05:16:24;6.30;;;3.70;;
51228;SDS011;37304;52.216;6.874;2023-07-20T05:21:25;4.93;;;3.45;;
51228;SDS011;37304;52.216;6.874;2023-07-20T05:26:25;6.57;;;3.88;;
51228;SDS011;37304;52.216;6.874;2023-07-20T05:31:25;5.47;;;3.38;;
51228;SDS011;37304;52.216;6.874;2023-07-20T05:36:26;6.18;;;3.72;;
51228;SDS011;37304;52.216;6.874;2023-07-20T05:41:26;6.45;;;3.45;;
51228;SDS011;37304;52.216;6.874;2023-07-20T05:46:27;4.30;;;3.38;;
51228;SDS011;37304;52.216;6.874;2023-07-20T05:51:27;6.28;;;2.80;;
51228;SDS011;37304;52.216;6.874;2023-07-20T05:56:27;3.77;;;2.60;;
51228;SDS011;37304;52.216;6.874;2023-07-20T06:01:28;3.50;;;2.22;;
51228;SDS011;37304;52.216;6.874;2023-07-20T06:06:28;3.77;;;2.30;;
51228;SDS011;37304;52.216;6.874;2023-07-20T06:11:28;3.72;;;2.50;;
51228;SDS011;37304;52.216;6.874;2023-07-20T06:16:28;5.97;;;2.10;;
51228;SDS011;37304;52.216;6.874;2023-07-20T06:21:29;3.47;;;2.70;;
51228;SDS011;37304;52.216;6.874;2023-07-20T06:26:30;2.13;;;1.93;;
51228;SDS011;37304;52.216;6.874;2023-07-20T06:31:30;2.97;;;1.88;;
51228;SDS011;37304;52.216;6.874;2023-07-20T06:36:30;4.43;;;1.63;;
51228;SDS011;37304;52.216;6.874;2023-07-20T06:41:31;2.13;;;1.65;;
51228;SDS011;37304;52.216;6.874;2023-07-20T06:46:31;1.77;;;1.33;;
51228;SDS011;37304;52.216;6.874;2023-07-20T06:51:31;3.33;;;1.60;;
51228;SDS011;37304;52.216;6.874;2023-07-20T06:56:31;2.92;;;1.38;;
51228;SDS011;37304;52.216;6.874;2023-07-20T07:01:32;1.70;;;1.20;;
51228;SDS011;37304;52.216;6.874;2023-07-20T07:06:32;4.45;;;1.20;;
51228;SDS011;37304;52.216;6.874;2023-07-20T07:11:33;0.90;;;0.90;;
51228;SDS011;37304;52.216;6.874;2023-07-20T07:16:33;2.30;;;1.00;;
51228;SDS011;37304;52.216;6.874;2023-07-20T07:21:33;1.48;;;1.00;;
51228;SDS011;37304;52.216;6.874;2023-07-20T07:26:33;1.27;;;0.75;;
51228;SDS011;37304;52.216;6.874;2023-07-20T07:31:34;1.40;;;0.80;;
51228;SDS011;37304;52.216;6.874;2023-07-20T07:36:35;2.55;;;0.95;;
51228;SDS011;37304;52.216;6.874;2023-07-20T07:41:36;2.33;;;1.00;;
51228;SDS011;37304;52.216;6.874;2023-07-20T07:46:36;1.55;;;0.70;;
51228;SDS011;37304;52.216;6.874;2023-07-20T07:51:36;2.55;;;0.85;;
51228;SDS011;37304;52.216;6.874;2023-07-20T07:56:36;1.40;;;0.70;;
51228;SDS011;37304;52.216;6.874;2023-07-20T08:01:37;1.45;;;0.55;;
51228;SDS011;37304;52.216;6.874;2023-07-20T08:06:37;1.38;;;0.73;;
51228;SDS011;37304;52.216;6.874;2023-07-20T08:16:37;1.27;;;0.57;;
51228;SDS011;37304;52.216;6.874;2023-07-20T08:21:37;3.83;;;0.43;;
51228;SDS011;37304;52.216;6.874;2023-07-20T08:26:38;1.67;;;0.40;;
51228;SDS011;37304;52.216;6.874;2023-07-20T08:31:38;0.22;;;0.22;;
51228;SDS011;37304;52.216;6.874;2023-07-20T08:36:38;1.02;;;0.35;;
51228;SDS011;37304;52.216;6.874;2023-07-20T08:41:38;0.98;;;0.47;;
51228;SDS011;37304;52.216;6.874;2023-07-20T08:46:39;1.08;;;0.20;;
51228;SDS011;37304;52.216;6.874;2023-07-20T08:51:40;2.72;;;0.43;;
51228;SDS011;37304;52.216;6.874;2023-07-20T08:56:41;1.20;;;0.60;;
51228;SDS011;37304;52.216;6.874;2023-07-20T09:01:42;0.90;;;0.40;;
51228;SDS011;37304;52.216;6.874;2023-07-20T09:06:43;0.50;;;0.40;;
51228;SDS011;37304;52.216;6.874;2023-07-20T09:11:46;1.73;;;0.30;;
51228;SDS011;37304;52.216;6.874;2023-07-20T09:21:48;1.10;;;0.22;;
51228;SDS011;37304;52.216;6.874;2023-07-20T09:26:49;1.55;;;0.60;;
51228;SDS011;37304;52.216;6.874;2023-07-20T09:32:00;1.67;;;0.60;;
51228;SDS011;37304;52.216;6.874;2023-07-20T09:37:01;0.98;;;0.40;;
51228;SDS011;37304;52.216;6.874;2023-07-20T09:42:02;1.52;;;0.60;;
51228;SDS011;37304;52.216;6.874;2023-07-20T09:47:04;1.60;;;0.47;;
51228;SDS011;37304;52.216;6.874;2023-07-20T09:52:04;1.50;;;0.50;;
51228;SDS011;37304;52.216;6.874;2023-07-20T09:57:08;1.87;;;0.47;;
51228;SDS011;37304;52.216;6.874;2023-07-20T10:02:25;1.00;;;0.57;;
51228;SDS011;37304;52.216;6.874;2023-07-20T10:07:25;1.90;;;0.70;;
51228;SDS011;37304;52.216;6.874;2023-07-20T10:12:27;0.85;;;0.63;;
51228;SDS011;37304;52.216;6.874;2023-07-20T10:17:27;0.30;;;0.30;;
51228;SDS011;37304;52.216;6.874;2023-07-20T10:22:28;1.45;;;0.90;;
51228;SDS011;37304;52.216;6.874;2023-07-20T10:27:30;1.80;;;0.30;;
51228;SDS011;37304;52.216;6.874;2023-07-20T10:32:30;1.07;;;0.43;;
51228;SDS011;37304;52.216;6.874;2023-07-20T10:37:46;1.70;;;0.40;;
51228;SDS011;37304;52.216;6.874;2023-07-20T10:42:48;0.70;;;0.20;;
51228;SDS011;37304;52.216;6.874;2023-07-20T10:47:48;1.40;;;0.22;;
51228;SDS011;37304;52.216;6.874;2023-07-20T10:53:03;0.87;;;0.20;;
51228;SDS011;37304;52.216;6.874;2023-07-20T10:58:11;0.30;;;0.20;;
51228;SDS011;37304;52.216;6.874;2023-07-20T11:03:12;0.38;;;0.22;;
51228;SDS011;37304;52.216;6.874;2023-07-20T11:08:39;0.50;;;0.40;;
51228;SDS011;37304;52.216;6.874;2023-07-20T11:13:53;0.75;;;0.40;;
51228;SDS011;37304;52.216;6.874;2023-07-20T11:18:53;0.50;;;0.20;;
51228;SDS011;37304;52.216;6.874;2023-07-20T11:23:55;0.75;;;0.25;;
51228;SDS011;37304;52.216;6.874;2023-07-20T11:28:55;0.52;;;0.30;;
51228;SDS011;37304;52.216;6.874;2023-07-20T11:33:56;0.20;;;0.20;;
51228;SDS011;37304;52.216;6.874;2023-07-20T11:38:56;0.90;;;0.13;;
51228;SDS011;37304;52.216;6.874;2023-07-20T11:43:57;0.95;;;0.28;;
51228;SDS011;37304;52.216;6.874;2023-07-20T11:49:00;0.10;;;0.10;;
51228;SDS011;37304;52.216;6.874;2023-07-20T11:54:01;1.02;;;0.10;;
51228;SDS011;37304;52.216;6.874;2023-07-20T11:59:02;0.52;;;0.22;;
51228;SDS011;37304;52.216;6.874;2023-07-20T12:04:03;0.90;;;0.30;;
51228;SDS011;37304;52.216;6.874;2023-07-20T12:09:03;0.50;;;0.40;;
51228;SDS011;37304;52.216;6.874;2023-07-20T12:14:07;0.63;;;0.30;;
51228;SDS011;37304;52.216;6.874;2023-07-20T12:19:08;0.30;;;0.30;;
51228;SDS011;37304;52.216;6.874;2023-07-20T12:24:10;0.40;;;0.20;;
51228;SDS011;37304;52.216;6.874;2023-07-20T12:29:10;1.02;;;0.40;;
51228;SDS011;37304;52.216;6.874;2023-07-20T12:34:10;1.30;;;0.45;;
51228;SDS011;37304;52.216;6.874;2023-07-20T12:39:11;2.63;;;0.47;;
51228;SDS011;37304;52.216;6.874;2023-07-20T12:44:11;0.90;;;0.25;;
51228;SDS011;37304;52.216;6.874;2023-07-20T12:49:11;1.05;;;0.40;;
51228;SDS011;37304;52.216;6.874;2023-07-20T12:54:11;0.70;;;0.43;;
51228;SDS011;37304;52.216;6.874;2023-07-20T12:59:12;0.70;;;0.40;;
51228;SDS011;37304;52.216;6.874;2023-07-20T13:04:12;0.52;;;0.45;;
51228;SDS011;37304;52.216;6.874;2023-07-20T13:09:13;1.48;;;0.47;;
51228;SDS011;37304;52.216;6.874;2023-07-20T13:14:14;1.58;;;0.40;;
51228;SDS011;37304;52.216;6.874;2023-07-20T13:19:14;0.73;;;0.40;;
51228;SDS011;37304;52.216;6.874;2023-07-20T13:24:14;0.50;;;0.50;;
51228;SDS011;37304;52.216;6.874;2023-07-20T13:29:15;0.63;;;0.40;;
51228;SDS011;37304;52.216;6.874;2023-07-20T13:34:15;0.43;;;0.43;;
51228;SDS011;37304;52.216;6.874;2023-07-20T13:39:15;0.40;;;0.30;;
51228;SDS011;37304;52.216;6.874;2023-07-20T13:44:16;0.32;;;0.32;;
51228;SDS011;37304;52.216;6.874;2023-07-20T13:49:16;0.50;;;0.30;;
51228;SDS011;37304;52.216;6.874;2023-07-20T13:54:16;0.35;;;0.35;;
51228;SDS011;37304;52.216;6.874;2023-07-20T13:59:17;0.82;;;0.47;;
51228;SDS011;37304;52.216;6.874;2023-07-20T14:04:17;2.25;;;0.50;;
51228;SDS011;37304;52.216;6.874;2023-07-20T14:09:18;0.57;;;0.50;;
51228;SDS011;37304;52.216;6.874;2023-07-20T14:14:19;0.93;;;0.43;;
51228;SDS011;37304;52.216;6.874;2023-07-20T14:19:19;0.85;;;0.43;;
51228;SDS011;37304;52.216;6.874;2023-07-20T14:24:19;1.80;;;0.50;;
51228;SDS011;37304;52.216;6.874;2023-07-20T14:29:20;0.50;;;0.50;;
51228;SDS011;37304;52.216;6.874;2023-07-20T14:34:20;0.80;;;0.50;;
51228;SDS011;37304;52.216;6.874;2023-07-20T14:39:21;0.70;;;0.55;;
51228;SDS011;37304;52.216;6.874;2023-07-20T14:44:21;0.95;;;0.50;;
51228;SDS011;37304;52.216;6.874;2023-07-20T14:49:21;2.08;;;0.50;;
51228;SDS011;37304;52.216;6.874;2023-07-20T14:54:22;0.60;;;0.60;;
51228;SDS011;37304;52.216;6.874;2023-07-20T14:59:22;1.27;;;0.47;;
51228;SDS011;37304;52.216;6.874;2023-07-20T15:04:22;2.15;;;1.30;;
51228;SDS011;37304;52.216;6.874;2023-07-20T15:09:22;0.63;;;0.50;;
51228;SDS011;37304;52.216;6.874;2023-07-20T15:14:23;1.60;;;0.65;;
51228;SDS011;37304;52.216;6.874;2023-07-20T15:19:23;0.70;;;0.70;;
51228;SDS011;37304;52.216;6.874;2023-07-20T15:24:23;1.92;;;0.80;;
51228;SDS011;37304;52.216;6.874;2023-07-20T15:29:23;1.00;;;0.60;;
51228;SDS011;37304;52.216;6.874;2023-07-20T15:34:24;0.63;;;0.63;;
51228;SDS011;37304;52.216;6.874;2023-07-20T15:39:26;0.90;;;0.40;;
51228;SDS011;37304;52.216;6.874;2023-07-20T15:44:27;1.35;;;0.55;;
51228;SDS011;37304;52.216;6.874;2023-07-20T15:49:27;1.73;;;1.00;;
51228;SDS011;37304;52.216;6.874;2023-07-20T15:54:27;0.73;;;0.60;;
51228;SDS011;37304;52.216;6.874;2023-07-20T15:59:27;0.40;;;0.40;;
51228;SDS011;37304;52.216;6.874;2023-07-20T16:04:28;0.57;;;0.57;;
51228;SDS011;37304;52.216;6.874;2023-07-20T16:09:28;0.82;;;0.50;;
51228;SDS011;37304;52.216;6.874;2023-07-20T16:14:29;4.05;;;0.50;;
51228;SDS011;37304;52.216;6.874;2023-07-20T16:19:29;1.02;;;0.63;;
51228;SDS011;37304;52.216;6.874;2023-07-20T16:24:30;0.75;;;0.40;;
51228;SDS011;37304;52.216;6.874;2023-07-20T16:29:31;2.38;;;0.70;;
51228;SDS011;37304;52.216;6.874;2023-07-20T16:34:31;0.80;;;0.57;;
51228;SDS011;37304;52.216;6.874;2023-07-20T16:39:32;0.85;;;0.43;;
51228;SDS011;37304;52.216;6.874;2023-07-20T16:44:32;1.17;;;0.40;;
51228;SDS011;37304;52.216;6.874;2023-07-20T16:49:32;0.40;;;0.40;;
51228;SDS011;37304;52.216;6.874;2023-07-20T16:54:32;0.55;;;0.40;;
51228;SDS011;37304;52.216;6.874;2023-07-20T16:59:33;0.60;;;0.43;;
51228;SDS011;37304;52.216;6.874;2023-07-20T17:04:33;0.75;;;0.40;;
51228;SDS011;37304;52.216;6.874;2023-07-20T17:09:33;2.13;;;0.67;;
51228;SDS011;37304;52.216;6.874;2023-07-20T17:14:34;1.42;;;0.60;;
51228;SDS011;37304;52.216;6.874;2023-07-20T17:19:35;1.85;;;0.50;;
51228;SDS011;37304;52.216;6.874;2023-07-20T17:24:35;1.45;;;0.50;;
51228;SDS011;37304;52.216;6.874;2023-07-20T17:29:36;2.67;;;0.52;;
51228;SDS011;37304;52.216;6.874;2023-07-20T17:34:37;1.25;;;0.50;;
51228;SDS011;37304;52.216;6.874;2023-07-20T17:39:40;2.70;;;0.50;;
51228;SDS011;37304;52.216;6.874;2023-07-20T17:44:40;2.40;;;0.70;;
51228;SDS011;37304;52.216;6.874;2023-07-20T17:49:40;1.33;;;0.70;;
51228;SDS011;37304;52.216;6.874;2023-07-20T17:54:41;1.33;;;0.70;;
51228;SDS011;37304;52.216;6.874;2023-07-20T17:59:41;0.60;;;0.60;;
51228;SDS011;37304;52.216;6.874;2023-07-20T18:04:42;0.88;;;0.75;;
51228;SDS011;37304;52.216;6.874;2023-07-20T18:09:42;0.85;;;0.65;;
51228;SDS011;37304;52.216;6.874;2023-07-20T18:14:43;1.73;;;0.60;;
51228;SDS011;37304;52.216;6.874;2023-07-20T18:19:43;0.93;;;0.70;;
51228;SDS011;37304;52.216;6.874;2023-07-20T18:24:43;1.47;;;0.80;;
51228;SDS011;37304;52.216;6.874;2023-07-20T18:29:44;2.03;;;0.80;;
51228;SDS011;37304;52.216;6.874;2023-07-20T18:34:44;1.30;;;0.60;;
51228;SDS011;37304;52.216;6.874;2023-07-20T18:39:45;2.13;;;0.80;;
51228;SDS011;37304;52.216;6.874;2023-07-20T18:44:46;1.70;;;0.60;;
51228;SDS011;37304;52.216;6.874;2023-07-20T18:49:46;2.30;;;0.97;;
51228;SDS011;37304;52.216;6.874;2023-07-20T18:54:46;2.13;;;0.70;;
51228;SDS011;37304;52.216;6.874;2023-07-20T19:01:29;2.85;;;1.10;;
51228;SDS011;37304;52.216;6.874;2023-07-20T19:06:45;1.50;;;1.02;;
51228;SDS011;37304;52.216;6.874;2023-07-20T19:11:47;2.08;;;0.80;;
51228;SDS011;37304;52.216;6.874;2023-07-20T19:16:53;1.17;;;0.80;;
51228;SDS011;37304;52.216;6.874;2023-07-20T19:21:55;1.20;;;0.85;;
51228;SDS011;37304;52.216;6.874;2023-07-20T19:26:56;0.80;;;0.80;;
51228;SDS011;37304;52.216;6.874;2023-07-20T19:32:05;1.55;;;0.88;;
51228;SDS011;37304;52.216;6.874;2023-07-20T19:37:06;2.10;;;0.80;;
51228;SDS011;37304;52.216;6.874;2023-07-20T19:42:10;1.40;;;0.80;;
51228;SDS011;37304;52.216;6.874;2023-07-20T19:47:17;0.80;;;0.80;;
51228;SDS011;37304;52.216;6.874;2023-07-20T19:52:18;0.93;;;0.80;;
51228;SDS011;37304;52.216;6.874;2023-07-20T19:57:19;1.45;;;1.20;;
51228;SDS011;37304;52.216;6.874;2023-07-20T20:02:25;2.88;;;1.30;;
51228;SDS011;37304;52.216;6.874;2023-07-20T20:07:28;1.70;;;1.33;;
51228;SDS011;37304;52.216;6.874;2023-07-20T20:12:33;1.85;;;1.30;;
51228;SDS011;37304;52.216;6.874;2023-07-20T20:17:36;4.95;;;1.08;;
51228;SDS011;37304;52.216;6.874;2023-07-20T20:22:38;1.35;;;1.00;;
51228;SDS011;37304;52.216;6.874;2023-07-20T20:27:38;2.00;;;0.90;;
51228;SDS011;37304;52.216;6.874;2023-07-20T20:32:39;1.33;;;1.10;;
51228;SDS011;37304;52.216;6.874;2023-07-20T20:37:42;1.02;;;0.90;;
51228;SDS011;37304;52.216;6.874;2023-07-20T20:42:42;1.02;;;0.70;;
51228;SDS011;37304;52.216;6.874;2023-07-20T20:47:46;2.10;;;0.93;;
51228;SDS011;37304;52.216;6.874;2023-07-20T20:52:51;4.45;;;1.08;;
51228;SDS011;37304;52.216;6.874;2023-07-20T20:57:54;2.50;;;1.00;;
51228;SDS011;37304;52.216;6.874;2023-07-20T21:02:55;1.75;;;1.20;;
51228;SDS011;37304;52.216;6.874;2023-07-20T21:07:55;1.92;;;1.10;;
51228;SDS011;37304;52.216;6.874;2023-07-20T21:12:56;4.27;;;1.20;;
51228;SDS011;37304;52.216;6.874;2023-07-20T21:17:59;1.85;;;1.02;;
51228;SDS011;37304;52.216;6.874;2023-07-20T21:23:00;1.93;;;1.40;;
51228;SDS011;37304;52.216;6.874;2023-07-20T21:28:00;1.33;;;0.93;;
51228;SDS011;37304;52.216;6.874;2023-07-20T21:33:02;1.50;;;0.90;;
51228;SDS011;37304;52.216;6.874;2023-07-20T21:38:03;3.72;;;1.15;;
51228;SDS011;37304;52.216;6.874;2023-07-20T21:43:03;2.70;;;1.10;;
51228;SDS011;37304;52.216;6.874;2023-07-20T21:48:04;2.57;;;1.27;;
51228;SDS011;37304;52.216;6.874;2023-07-20T21:53:05;2.75;;;1.33;;
51228;SDS011;37304;52.216;6.874;2023-07-20T21:58:06;1.67;;;1.15;;
51228;SDS011;37304;52.216;6.874;2023-07-20T22:03:06;1.80;;;1.30;;
51228;SDS011;37304;52.216;6.874;2023-07-20T22:08:06;3.83;;;1.27;;
51228;SDS011;37304;52.216;6.874;2023-07-20T22:13:07;2.80;;;1.20;;
51228;SDS011;37304;52.216;6.874;2023-07-20T22:18:08;1.80;;;1.27;;
51228;SDS011;37304;52.216;6.874;2023-07-20T22:23:11;1.70;;;1.20;;
51228;SDS011;37304;52.216;6.874;2023-07-20T22:28:13;1.40;;;1.00;;
51228;SDS011;37304;52.216;6.874;2023-07-20T22:33:15;2.17;;;1.13;;
51228;SDS011;37304;52.216;6.874;2023-07-20T22:38:16;1.15;;;1.05;;
51228;SDS011;37304;52.216;6.874;2023-07-20T22:43:17;1.75;;;1.38;;
51228;SDS011;37304;52.216;6.874;2023-07-20T22:48:20;2.97;;;1.48;;
51228;SDS011;37304;52.216;6.874;2023-07-20T22:53:23;2.42;;;1.35;;
51228;SDS011;37304;52.216;6.874;2023-07-20T22:58:27;2.72;;;1.30;;
51228;SDS011;37304;52.216;6.874;2023-07-20T23:03:27;2.90;;;1.48;;
51228;SDS011;37304;52.216;6.874;2023-07-20T23:08:29;1.73;;;1.25;;
51228;SDS011;37304;52.216;6.874;2023-07-20T23:13:29;3.65;;;1.60;;
51228;SDS011;37304;52.216;6.874;2023-07-20T23:18:31;2.47;;;1.52;;
51228;SDS011;37304;52.216;6.874;2023-07-20T23:23:33;2.22;;;1.83;;
51228;SDS011;37304;52.216;6.874;2023-07-20T23:28:35;2.38;;;1.50;;
51228;SDS011;37304;52.216;6.874;2023-07-20T23:33:36;3.08;;;1.65;;
51228;SDS011;37304;52.216;6.874;2023-07-20T23:38:37;2.97;;;1.73;;
51228;SDS011;37304;52.216;6.874;2023-07-20T23:43:39;3.20;;;1.95;;
51228;SDS011;37304;52.216;6.874;2023-07-20T23:48:40;2.75;;;1.80;;
51228;SDS011;37304;52.216;6.874;2023-07-20T23:53:41;2.70;;;1.73;;
51228;SDS011;37304;52.216;6.874;2023-07-20T23:58:41;2.60;;;1.80;;
